Impacts TAF Board INFO
FOR SITUATIONAL AWARENESS. NOT TO BE USED FOR FLIGHT PLANNING PURPOSES.
IDs:

PANC - Anchorage Intl, AK, US

Issued at 0527 UTC 26 May 2017
Updated at 1118 UTC 26 May 2017
Potential Impact None Slight Moderate High
Time1053Z 26/12Z 26/13Z 26/14Z 26/15Z 26/16Z 26/17Z 26/18Z 26/19Z 26/20Z 26/21Z 26/22Z 26/23Z 27/00Z>>
Type OBS PRVL PRVL PRVL PRVL PRVL PRVL PRVL PRVL PRVL PRVL PRVL PRVL PRVL
VIS 10 >6 >6 >6 >6 >6 >6 >6 >6 >6 >6 >6 >6 >6
CIG -- 80 80 80 80 80 80 80 80 80 80 80 60 60
Cover CLR BKN BKN BKN BKN BKN BKN BKN BKN BKN BKN BKN BKN BKN
FltCat VFR VFR VFR VFR VFR VFR VFR VFR VFR VFR VFR VFR VFR VFR
WX -- -- -- -- -- -- -- -- -- -- -- -- VCSH VCSH
WDir 170 170 170 170 170 170 170 170 170 170 170 170 170 170
WSpd 13 11 11 11 11 11 11 11 11 11 11 11 17 17
WGst 19 -- -- -- -- -- -- -- -- -- -- -- 24 24

Raw TAF
PANC 260527Z 2606/2712 20015G23KT P6SM SCT050 BKN080
  FM261200 17011KT P6SM SCT050 BKN080
  FM262300 17017G24KT P6SM VCSH SCT040 BKN060
  FM270600 15011KT P6SM SCT050 BKN080


Raw METAR
PANC 261053Z 17013G19KT 10SM CLR 06/M03 A3005 RMK AO2 SLP175 T00611028
PANC 260953Z 17009G21KT 10SM CLR 06/M02 A3004 RMK AO2 PK WND 17027/0925 SLP172 T00611022
PANC 260853Z 17012G22KT 10SM FEW060 SCT200 06/M02 A3002 RMK AO2 SLP166 T00611017 401280061 51021

METAR Board
Radar Display
Forecast Discussion

FOR SITUATIONAL AWARENESS. NOT TO BE USED FOR FLIGHT PLANNING PURPOSES.

Page loaded:  11:18 UTC  |   04:18 AM Pacific  |   05:18 AM Mountain  |   06:18 AM Central  |   07:18 AM Eastern

 

ADVISORIES

FORECASTS

FORECASTS

OBSERVATIONS

USER TOOLS

ABOUT US